createdAt,value
2018-02-06T00:00:21.793Z,30.73
2018-02-06T00:01:21.858Z,30.63
2018-02-06T00:02:21.922Z,30.82
2018-02-06T00:03:21.989Z,30.82
2018-02-06T00:04:22.054Z,30.73
2018-02-06T00:05:22.119Z,30.82
2018-02-06T00:06:22.185Z,30.82
2018-02-06T00:07:22.250Z,30.73
2018-02-06T00:08:22.316Z,30.82
2018-02-06T00:09:22.381Z,30.73
2018-02-06T00:10:22.445Z,30.73
2018-02-06T00:11:22.511Z,30.63
2018-02-06T00:12:22.578Z,30.82
2018-02-06T00:13:22.643Z,30.82
2018-02-06T00:14:22.709Z,30.82
2018-02-06T00:15:22.772Z,30.82
2018-02-06T00:16:22.838Z,30.73
2018-02-06T00:17:22.905Z,30.91
2018-02-06T00:18:22.968Z,30.73
2018-02-06T00:19:23.034Z,30.91
2018-02-06T00:20:23.099Z,30.91
2018-02-06T00:21:23.166Z,30.73
2018-02-06T00:22:23.230Z,30.91
2018-02-06T00:23:23.295Z,30.82
2018-02-06T00:24:23.361Z,30.73
2018-02-06T00:25:23.427Z,30.82
2018-02-06T00:26:23.492Z,31.01
2018-02-06T00:27:23.558Z,30.82
2018-02-06T00:28:23.623Z,30.73
2018-02-06T00:29:23.688Z,30.82
2018-02-06T00:30:23.753Z,30.73
2018-02-06T00:31:23.818Z,30.82
2018-02-06T00:32:23.884Z,30.82
2018-02-06T00:33:23.950Z,30.73
2018-02-06T00:34:24.016Z,30.73
2018-02-06T00:35:24.079Z,30.82
2018-02-06T00:36:24.147Z,30.73
2018-02-06T00:37:24.210Z,30.91
2018-02-06T00:38:24.276Z,30.91
2018-02-06T00:39:24.341Z,30.73
2018-02-06T00:40:24.407Z,30.73
2018-02-06T00:41:24.473Z,31.01
2018-02-06T00:42:24.538Z,30.73
2018-02-06T00:43:24.603Z,31.01
2018-02-06T00:44:24.670Z,30.91
2018-02-06T00:45:24.736Z,30.73
2018-02-06T00:46:24.800Z,31.01
2018-02-06T00:47:24.864Z,30.82
2018-02-06T00:48:24.936Z,30.73
2018-02-06T00:49:24.996Z,30.82
2018-02-06T00:50:25.060Z,30.73
2018-02-06T00:51:25.126Z,30.73
2018-02-06T00:52:25.191Z,30.73
2018-02-06T00:53:25.258Z,30.73
2018-02-06T00:54:25.321Z,30.91
2018-02-06T00:55:25.387Z,30.73
2018-02-06T00:56:25.452Z,30.63
2018-02-06T00:57:25.519Z,30.73
2018-02-06T00:58:25.586Z,30.73
2018-02-06T00:59:25.648Z,30.73
2018-02-06T01:00:25.714Z,30.73
2018-02-06T01:01:25.782Z,30.73
2018-02-06T01:02:25.845Z,30.63
2018-02-06T01:03:25.910Z,30.73
2018-02-06T01:04:25.975Z,30.73
2018-02-06T01:05:26.041Z,30.73
2018-02-06T01:06:26.107Z,30.82
2018-02-06T01:07:26.170Z,30.73
2018-02-06T01:08:26.236Z,30.91
2018-02-06T01:09:26.303Z,30.82
2018-02-06T01:10:26.367Z,30.82
2018-02-06T01:11:26.433Z,30.91
2018-02-06T01:12:26.497Z,30.73
2018-02-06T01:13:26.563Z,30.63
2018-02-06T01:14:26.627Z,30.73
2018-02-06T01:15:26.692Z,30.82
2018-02-06T01:16:26.761Z,30.82
2018-02-06T01:17:26.824Z,30.73
2018-02-06T01:18:26.890Z,30.73
2018-02-06T01:19:26.955Z,30.63
2018-02-06T01:20:27.021Z,30.63
2018-02-06T01:21:27.086Z,30.91
2018-02-06T01:22:27.150Z,30.63
2018-02-06T01:23:27.216Z,30.73
2018-02-06T01:24:27.282Z,30.73
2018-02-06T01:25:27.349Z,30.73
2018-02-06T01:26:27.562Z,30.91
2018-02-06T01:27:27.478Z,30.63
2018-02-06T01:28:27.542Z,30.63
2018-02-06T01:29:27.609Z,30.73
2018-02-06T01:30:27.673Z,30.82
2018-02-06T01:31:27.739Z,30.82
2018-02-06T01:32:27.804Z,30.82
2018-02-06T01:33:27.869Z,30.91
2018-02-06T01:34:27.934Z,30.63
2018-02-06T01:35:28.000Z,30.82
2018-02-06T01:36:28.066Z,30.82
2018-02-06T01:37:28.131Z,30.73
2018-02-06T01:38:28.194Z,30.82
2018-02-06T01:39:28.260Z,30.73
2018-02-06T01:40:28.327Z,30.82
2018-02-06T01:41:28.543Z,30.63
2018-02-06T01:42:28.457Z,30.73
2018-02-06T01:43:28.522Z,30.82
2018-02-06T01:44:28.590Z,30.73
2018-02-06T01:45:28.656Z,30.63
2018-02-06T01:46:28.718Z,30.82
2018-02-06T01:47:28.784Z,30.91
2018-02-06T01:48:28.850Z,30.63
2018-02-06T01:49:28.914Z,30.73
2018-02-06T01:50:28.980Z,30.91
2018-02-06T01:51:29.046Z,30.63
2018-02-06T01:52:29.110Z,30.73
2018-02-06T01:53:29.176Z,30.82
2018-02-06T01:54:29.241Z,30.63
2018-02-06T01:55:29.307Z,30.63
2018-02-06T01:56:29.372Z,30.73
2018-02-06T01:57:29.438Z,30.73
2018-02-06T01:58:29.502Z,30.53
2018-02-06T01:59:29.568Z,30.53
2018-02-06T02:00:29.633Z,30.63
2018-02-06T02:01:29.698Z,30.73
2018-02-06T02:02:29.764Z,30.53
2018-02-06T02:03:29.828Z,30.73
2018-02-06T02:04:29.894Z,30.73
2018-02-06T02:05:29.960Z,30.82
2018-02-06T02:06:30.024Z,30.91
2018-02-06T02:07:30.090Z,31.01
2018-02-06T02:08:30.157Z,30.34
2018-02-06T02:09:30.221Z,30.73
2018-02-06T02:10:30.286Z,30.63
2018-02-06T02:11:30.350Z,30.91
2018-02-06T02:12:30.416Z,30.53
2018-02-06T02:13:30.481Z,30.63
2018-02-06T02:14:30.547Z,30.53
2018-02-06T02:15:30.612Z,30.43
2018-02-06T02:16:30.678Z,30.53
2018-02-06T02:17:30.743Z,30.63
2018-02-06T02:18:30.806Z,30.43
2018-02-06T02:19:30.873Z,30.43
2018-02-06T02:20:30.939Z,30.82
2018-02-06T02:21:31.010Z,30.53
2018-02-06T02:22:31.068Z,30.53
2018-02-06T02:23:31.135Z,30.73
2018-02-06T02:24:31.199Z,30.34
2018-02-06T02:25:31.272Z,30.63
2018-02-06T02:26:31.329Z,30.34
2018-02-06T02:27:31.396Z,30.43
2018-02-06T02:28:31.460Z,30.24
2018-02-06T02:29:31.526Z,30.73
2018-02-06T02:30:31.591Z,30.34
2018-02-06T02:31:31.656Z,30.63
2018-02-06T02:32:31.722Z,30.91
2018-02-06T02:33:31.788Z,30.91
2018-02-06T02:34:31.852Z,30.24
2018-02-06T02:35:31.918Z,30.82
2018-02-06T02:36:31.983Z,30.53
2018-02-06T02:37:32.054Z,30.82
2018-02-06T02:38:32.114Z,30.53
2018-02-06T02:39:32.179Z,30.34
2018-02-06T02:40:32.244Z,30.34
2018-02-06T02:41:32.311Z,30.53
2018-02-06T04:38:39.958Z,28.08
2018-02-06T04:39:40.023Z,27.97
2018-02-06T04:40:40.091Z,28.18
2018-02-06T04:41:40.156Z,28.07
2018-02-06T04:42:40.221Z,27.98
2018-02-06T04:43:40.286Z,28.16
2018-02-06T04:44:40.352Z,28.07
2018-02-06T04:45:40.418Z,27.97
2018-02-06T04:46:40.483Z,28.08
2018-02-06T04:47:40.552Z,27.97
2018-02-06T04:48:40.617Z,27.98
2018-02-06T04:49:40.683Z,27.98
2018-02-06T04:50:40.748Z,27.97
2018-02-06T04:51:40.813Z,27.97
2018-02-06T04:52:40.880Z,27.98
2018-02-06T04:53:40.946Z,28.28
2018-02-06T04:54:41.011Z,28.08
2018-02-06T04:55:41.078Z,28.26
2018-02-06T04:56:41.144Z,28.36
2018-02-06T04:57:41.210Z,28.36
2018-02-06T04:58:41.274Z,28.26
2018-02-06T04:59:41.341Z,28.26
2018-02-06T05:00:41.408Z,27.87
2018-02-06T05:01:41.472Z,26.15
2018-02-06T05:02:41.583Z,26.15
2018-02-06T05:03:41.605Z,25.18
2018-02-06T05:04:41.670Z,24.71
2018-02-06T05:05:41.737Z,24.50
2018-02-06T05:06:41.802Z,23.92
2018-02-06T05:07:41.870Z,24.50
2018-02-06T05:08:41.934Z,23.92
2018-02-06T05:09:42.004Z,24.02
2018-02-06T05:10:42.067Z,24.11
2018-02-06T05:11:42.133Z,23.82
2018-02-06T05:12:42.202Z,24.30
2018-02-06T05:13:42.265Z,24.21
2018-02-06T05:14:42.330Z,23.92
2018-02-06T05:15:42.397Z,23.82
2018-02-06T05:16:42.462Z,23.93
2018-02-06T05:17:42.536Z,23.92
2018-02-06T05:18:42.595Z,24.02
2018-02-06T05:19:42.661Z,23.35
2018-02-06T05:20:42.727Z,23.93
2018-02-06T05:21:42.792Z,24.41
2018-02-06T05:22:42.857Z,24.41
2018-02-06T05:23:42.925Z,24.90
2018-02-06T05:24:42.994Z,24.90
2018-02-06T05:25:43.057Z,24.90
2018-02-06T05:26:43.122Z,25.28
2018-02-06T05:27:43.188Z,25.19
2018-02-06T05:28:43.254Z,25.09
2018-02-06T05:29:43.322Z,25.09
2018-02-06T05:30:43.386Z,25.28
2018-02-06T05:31:43.452Z,25.19
2018-02-06T05:32:43.520Z,25.19
2018-02-06T05:33:43.585Z,25.86
2018-02-06T05:34:43.650Z,25.10
2018-02-06T05:35:43.718Z,25.57
2018-02-06T05:36:43.784Z,24.41
2018-02-06T05:37:43.858Z,24.22
2018-02-06T05:38:43.916Z,23.45
2018-02-06T05:39:43.982Z,23.65
2018-02-06T05:40:44.048Z,23.74
2018-02-06T05:41:44.116Z,23.65
2018-02-06T05:42:44.180Z,23.34
2018-02-06T05:43:44.248Z,23.92
2018-02-06T05:44:44.314Z,24.02
2018-02-06T05:45:44.380Z,23.44
2018-02-06T05:46:44.448Z,23.72
2018-02-06T05:47:44.513Z,23.34
2018-02-06T05:48:44.579Z,23.15
2018-02-06T05:49:44.645Z,23.82
2018-02-06T05:50:44.712Z,23.54
2018-02-06T05:51:44.778Z,23.72
2018-02-06T05:52:44.844Z,23.92
2018-02-06T05:53:44.909Z,24.11
2018-02-06T05:54:44.975Z,23.92
2018-02-06T05:55:45.044Z,23.82
2018-02-06T05:56:45.108Z,24.11
2018-02-06T05:57:45.177Z,24.50
2018-02-06T05:58:45.241Z,24.60
2018-02-06T05:59:45.307Z,24.88
2018-02-06T06:00:45.376Z,24.79
2018-02-06T06:01:45.441Z,24.79
2018-02-06T06:02:45.506Z,24.79
2018-02-06T06:03:45.572Z,24.88
2018-02-06T06:04:45.640Z,24.88
2018-02-06T06:05:45.706Z,25.08
2018-02-06T06:06:45.771Z,25.08
2018-02-06T06:07:45.836Z,25.56
2018-02-06T06:08:45.936Z,25.18
2018-02-06T06:09:45.970Z,25.37
2018-02-06T06:10:46.034Z,25.18
2018-02-06T06:11:46.102Z,25.18
2018-02-06T06:12:46.170Z,25.56
2018-02-06T06:13:46.234Z,25.56
2018-02-06T06:14:46.301Z,25.84
2018-02-06T06:15:46.367Z,25.74
2018-02-06T06:16:46.433Z,25.35
2018-02-06T06:17:46.499Z,25.74
2018-02-06T06:18:46.564Z,26.53
2018-02-06T06:19:46.632Z,26.53
2018-02-06T06:20:46.698Z,26.23
2018-02-06T06:21:46.764Z,26.23
2018-02-06T06:22:46.828Z,26.23
2018-02-06T06:23:46.894Z,26.04
2018-02-06T06:24:46.961Z,26.04
2018-02-06T06:25:47.028Z,26.53
2018-02-06T06:26:47.093Z,26.43
2018-02-06T06:27:47.160Z,26.43
2018-02-06T06:28:47.225Z,26.53
2018-02-06T06:29:47.292Z,26.23
2018-02-06T06:30:47.360Z,26.53
2018-02-06T06:31:47.424Z,26.62
2018-02-06T06:32:47.490Z,26.53
2018-02-06T06:33:47.568Z,26.62
2018-02-06T06:34:47.630Z,26.53
2018-02-06T06:35:47.690Z,26.14
2018-02-06T06:36:47.758Z,26.33
2018-02-06T06:37:47.826Z,26.53
2018-02-06T06:38:47.887Z,26.53
2018-02-06T06:39:47.954Z,26.53
2018-02-06T06:40:48.020Z,26.43
2018-02-06T06:41:48.088Z,26.91
2018-02-06T06:42:48.153Z,27.39
2018-02-06T06:43:48.218Z,27.49
2018-02-06T06:44:48.285Z,27.20
2018-02-06T06:45:48.351Z,27.39
2018-02-06T06:46:48.416Z,27.39
2018-02-06T06:47:48.484Z,27.29
2018-02-06T06:48:48.550Z,27.11
2018-02-06T06:49:48.616Z,27.29
2018-02-06T06:50:48.682Z,27.49
2018-02-06T06:51:48.749Z,27.59
2018-02-06T06:52:48.815Z,27.39
2018-02-06T06:53:48.881Z,27.59
2018-02-06T06:54:48.948Z,27.39
2018-02-06T06:55:49.014Z,27.49
2018-02-06T06:56:49.079Z,27.39
2018-02-06T06:57:49.150Z,27.39
2018-02-06T06:58:49.212Z,27.49
2018-02-06T06:59:49.278Z,27.78
2018-02-06T07:00:49.345Z,27.59
2018-02-06T07:01:49.411Z,27.59
2018-02-06T07:02:49.478Z,27.78
2018-02-06T07:03:49.543Z,27.97
2018-02-06T07:04:49.609Z,27.97
2018-02-06T07:29:35.015Z,72.14
2018-02-06T07:30:35.586Z,75.17
2018-02-06T07:31:35.812Z,77.63
2018-02-06T07:32:35.183Z,80.08
2018-02-06T07:33:35.239Z,81.37
2018-02-06T07:34:40.303Z,82.60
2018-02-06T07:35:35.351Z,83.54
2018-02-06T07:36:35.419Z,83.83
2018-02-06T07:37:35.905Z,83.36
2018-02-06T07:38:35.522Z,83.73
2018-02-06T07:39:35.578Z,84.39
2018-02-06T07:40:35.634Z,84.30
2018-02-06T07:41:35.690Z,84.68
2018-02-06T07:42:35.747Z,85.34
2018-02-06T07:43:36.405Z,85.43
2018-02-06T07:44:35.858Z,86.19
2018-02-06T07:45:35.921Z,85.91
2018-02-06T07:46:39.850Z,86.00
2018-02-06T07:47:36.623Z,86.38
2018-02-06T07:48:36.698Z,86.94
2018-02-06T07:49:36.136Z,86.19
2018-02-06T07:50:36.190Z,86.19
2018-02-06T07:51:36.244Z,86.57
2018-02-06T07:52:36.299Z,86.29
2018-02-06T07:53:36.355Z,86.66
2018-02-06T07:54:37.009Z,87.13
2018-02-06T07:55:37.424Z,86.94
2018-02-06T07:56:36.762Z,86.94
2018-02-06T07:57:36.639Z,86.66
2018-02-06T07:58:36.632Z,86.47
2018-02-06T07:59:36.681Z,86.19
2018-02-06T08:00:36.736Z,86.10
2018-02-06T08:01:37.466Z,86.85
2018-02-06T08:02:36.846Z,86.29
2018-02-06T08:03:36.898Z,87.04
2018-02-06T08:04:36.953Z,86.85
2018-02-06T08:05:37.012Z,86.66
2018-02-06T08:06:37.062Z,86.85
2018-02-06T08:07:37.129Z,86.94
2018-02-06T08:08:37.168Z,87.32
2018-02-06T08:09:37.224Z,87.23
2018-02-06T08:10:37.956Z,86.94
2018-02-06T08:11:37.341Z,87.13
2018-02-06T08:12:37.384Z,86.85
2018-02-06T08:13:37.438Z,86.57
2018-02-06T08:14:37.642Z,86.10
2018-02-06T08:15:37.544Z,85.91
2018-02-06T08:16:37.600Z,86.47
2018-02-06T08:17:37.652Z,86.76
2018-02-06T08:18:37.706Z,87.04
2018-02-06T08:19:37.758Z,86.66
2018-02-06T08:20:37.813Z,86.94
2018-02-06T08:21:37.867Z,87.23
2018-02-06T08:22:37.922Z,86.76
2018-02-06T08:23:38.939Z,86.85
2018-02-06T08:24:38.028Z,86.29
2018-02-06T08:25:38.081Z,86.10
2018-02-06T08:26:38.134Z,86.19
2018-02-06T08:27:38.187Z,86.10
2018-02-06T08:28:38.240Z,86.76
2018-02-06T08:29:38.295Z,86.47
2018-02-06T08:30:38.348Z,86.94
2018-02-06T08:31:38.400Z,86.76
2018-02-06T08:32:38.455Z,87.42
2018-02-06T08:33:38.536Z,87.23
2018-02-06T08:34:38.562Z,87.42
2018-02-06T08:35:38.614Z,87.70
2018-02-06T08:36:38.670Z,88.46
2018-02-06T08:37:38.721Z,87.61
2018-02-06T08:38:38.775Z,87.70
2018-02-06T08:39:38.827Z,88.08
2018-02-06T08:40:39.251Z,88.74
2018-02-06T08:41:38.935Z,88.65
2018-02-06T08:42:38.986Z,88.17
2018-02-06T08:43:39.039Z,88.08
2018-02-06T08:44:39.093Z,87.89
2018-02-06T08:45:39.147Z,88.55
2018-02-06T08:46:39.199Z,88.08
2018-02-06T08:47:39.253Z,88.08
2018-02-06T08:48:39.312Z,87.89
2018-02-06T08:49:39.359Z,88.65
2018-02-06T08:50:39.416Z,88.27
2018-02-06T08:51:39.466Z,88.08
2018-02-06T08:52:39.517Z,88.08
2018-02-06T08:53:39.572Z,87.89
2018-02-06T08:54:39.624Z,88.31
2018-02-06T08:55:39.678Z,88.17
2018-02-06T08:56:39.732Z,88.36
2018-02-06T08:57:39.785Z,88.79
2018-02-06T08:58:39.838Z,88.50
2018-02-06T08:59:40.049Z,88.12
2018-02-06T09:00:39.943Z,87.65
2018-02-06T09:01:39.999Z,88.22
2018-02-06T09:02:40.051Z,87.84
2018-02-06T09:03:40.108Z,87.46
2018-02-06T09:04:40.157Z,86.80
2018-02-06T09:05:40.222Z,86.23
2018-02-06T09:06:40.414Z,86.14
2018-02-06T09:07:40.317Z,86.04
2018-02-06T09:08:40.369Z,85.57
2018-02-06T09:09:40.423Z,85.38
2018-02-06T09:10:40.478Z,85.38
2018-02-06T09:11:40.531Z,84.53
2018-02-06T09:12:40.584Z,83.87
2018-02-06T09:13:40.637Z,84.44
2018-02-06T09:14:41.185Z,84.72
2018-02-06T09:15:41.357Z,84.34
2018-02-06T09:16:40.799Z,84.53
2018-02-06T09:17:40.852Z,84.53
2018-02-06T09:18:40.907Z,85.28
2018-02-06T09:19:40.958Z,84.53
2018-02-06T09:20:41.013Z,85.38
2018-02-06T09:21:41.072Z,86.14
2018-02-06T09:22:41.119Z,85.95
2018-02-06T09:23:41.172Z,86.14
2018-02-06T09:24:41.477Z,86.42
2018-02-06T09:25:41.766Z,86.14
2018-02-06T09:26:41.334Z,85.66
2018-02-06T09:27:41.387Z,85.76
2018-02-06T09:28:41.493Z,85.28
2018-02-06T09:29:41.495Z,86.14
2018-02-06T09:31:14.759Z,85.85
2018-02-06T09:31:41.603Z,86.14
2018-02-06T09:32:41.656Z,85.76
2018-02-06T09:33:41.712Z,85.85
2018-02-06T09:34:41.763Z,85.85
2018-02-06T09:35:42.066Z,86.71
2018-02-06T09:36:41.870Z,86.80
2018-02-06T09:37:41.923Z,87.18
2018-02-06T09:38:42.011Z,86.71
2018-02-06T09:39:42.035Z,86.90
2018-02-06T09:40:42.085Z,87.27
2018-02-06T09:42:42.190Z,85.95
2018-02-06T09:43:42.246Z,86.33
2018-02-06T09:44:42.297Z,86.23
2018-02-06T09:45:42.353Z,86.90
2018-02-06T09:46:42.405Z,86.99
2018-02-06T09:47:42.460Z,86.23
2018-02-06T09:48:42.512Z,85.38
2018-02-06T09:49:42.566Z,86.14
2018-02-06T09:50:42.618Z,86.23
2018-02-06T09:51:42.672Z,85.57
2018-02-06T09:52:42.724Z,86.71
2018-02-06T09:53:42.778Z,86.33
2018-02-06T09:54:42.832Z,85.28
2018-02-06T09:55:42.900Z,84.81
2018-02-06T09:56:42.938Z,85.19
2018-02-06T09:57:42.992Z,85.57
2018-02-06T09:58:43.046Z,85.47
2018-02-06T09:59:43.097Z,84.63
2018-02-06T10:00:43.254Z,84.16
2018-02-06T10:01:43.205Z,85.28
2018-02-06T10:02:43.259Z,85.38
2018-02-06T10:03:43.311Z,85.38
2018-02-06T10:04:43.365Z,84.81
2018-02-06T10:05:43.430Z,85.47
2018-02-06T10:06:43.474Z,85.47
2018-02-06T10:07:43.526Z,85.28
2018-02-06T10:08:43.579Z,86.14
2018-02-06T10:09:43.633Z,85.95
2018-02-06T10:10:43.688Z,85.47
2018-02-06T10:11:43.739Z,85.85
2018-02-06T10:12:43.793Z,85.47
2018-02-06T10:13:43.849Z,86.14
2018-02-06T10:14:44.504Z,86.61
2018-02-06T10:15:43.968Z,86.33
2018-02-06T10:16:44.008Z,85.76
2018-02-06T10:17:44.061Z,85.47
2018-02-06T10:18:44.114Z,85.66
2018-02-06T10:19:44.168Z,85.28
2018-02-06T10:20:44.223Z,85.47
2018-02-06T10:21:44.584Z,86.04
2018-02-06T10:22:44.329Z,85.47
2018-02-06T10:23:44.382Z,85.38
2018-02-06T10:25:17.646Z,84.63
2018-02-06T10:25:44.489Z,84.53
2018-02-06T10:26:44.542Z,84.44
2018-02-06T10:27:44.595Z,84.81
2018-02-06T10:28:44.654Z,84.63
2018-02-06T10:29:44.702Z,84.53
2018-02-06T10:30:44.758Z,84.44
2018-02-06T10:31:44.808Z,84.34
2018-02-06T10:32:44.867Z,84.10
2018-02-06T10:33:44.916Z,83.87
2018-02-06T10:34:44.970Z,83.97
2018-02-06T10:35:45.028Z,84.44
2018-02-06T10:36:45.079Z,84.72
2018-02-06T10:37:45.130Z,83.97
2018-02-06T10:38:45.187Z,84.53
2018-02-06T10:39:45.237Z,84.25
2018-02-06T10:40:45.292Z,83.97
2018-02-06T10:41:45.344Z,83.40
2018-02-06T10:42:45.398Z,83.49
2018-02-06T10:43:45.454Z,83.87
2018-02-06T10:44:46.240Z,84.34
2018-02-06T10:45:46.265Z,84.44
2018-02-06T10:46:45.637Z,84.81
2018-02-06T10:47:45.664Z,84.16
2018-02-06T10:48:45.718Z,84.34
2018-02-06T10:49:45.772Z,84.44
2018-02-06T10:50:45.825Z,84.91
2018-02-06T10:51:45.879Z,85.19
2018-02-06T10:52:45.932Z,85.38
2018-02-06T10:53:45.986Z,84.72
2018-02-06T10:54:46.042Z,85.28
2018-02-06T10:55:46.091Z,85.19
2018-02-06T10:56:46.145Z,85.47
2018-02-06T10:57:46.199Z,84.72
2018-02-06T10:58:46.254Z,84.91
2018-02-06T10:59:46.308Z,84.91
2018-02-06T11:00:46.361Z,85.28
2018-02-06T11:01:46.413Z,85.28
2018-02-06T11:02:46.466Z,85.76
2018-02-06T11:03:46.519Z,85.38
2018-02-06T11:04:46.573Z,85.28
2018-02-06T11:05:46.626Z,85.28
2018-02-06T11:06:46.680Z,85.38
2018-02-06T11:07:46.732Z,85.38
2018-02-06T11:08:46.785Z,85.85
2018-02-06T11:09:46.840Z,86.04
2018-02-06T11:10:46.899Z,86.04
2018-02-06T11:11:46.945Z,86.14
2018-02-06T11:12:47.051Z,86.90
2018-02-06T11:13:47.053Z,87.55
2018-02-06T11:14:47.110Z,87.27
2018-02-06T11:15:47.161Z,87.46
2018-02-06T11:16:47.212Z,87.18
2018-02-06T11:17:47.267Z,86.90
2018-02-06T11:18:47.470Z,86.80
2018-02-06T11:19:47.372Z,87.08
2018-02-06T11:20:47.425Z,87.18
2018-02-06T11:21:47.479Z,87.37
2018-02-06T11:22:47.533Z,87.74
2018-02-06T11:23:47.585Z,88.50
2018-02-06T11:24:47.939Z,88.69
2018-02-06T11:25:47.692Z,88.79
2018-02-06T11:26:47.746Z,89.17
2018-02-06T11:27:47.798Z,89.54
2018-02-06T11:28:47.852Z,88.98
2018-02-06T11:29:47.906Z,88.50
2018-02-06T11:30:47.959Z,89.07
2018-02-06T11:31:48.012Z,88.69
2018-02-06T11:32:48.065Z,88.69
2018-02-06T11:33:48.118Z,88.60
2018-02-06T11:34:48.172Z,88.03
2018-02-06T11:35:48.230Z,88.41
2018-02-06T11:36:48.286Z,87.84
2018-02-06T11:37:48.332Z,88.50
2018-02-06T11:38:48.388Z,88.50
2018-02-06T11:39:48.438Z,88.88
2018-02-06T11:40:48.491Z,89.36
2018-02-06T11:41:48.546Z,89.26
2018-02-06T11:42:48.598Z,88.98
2018-02-06T11:43:48.651Z,88.79
2018-02-06T11:44:48.706Z,88.60
2018-02-06T11:45:48.759Z,88.60
2018-02-06T11:46:48.811Z,89.26
2018-02-06T11:47:48.864Z,88.41
2018-02-06T11:48:48.918Z,87.93
2018-02-06T11:49:48.972Z,87.74
2018-02-06T11:51:22.235Z,88.60
2018-02-06T11:51:49.077Z,89.45
2018-02-06T11:52:49.131Z,88.79
2018-02-06T11:53:49.434Z,89.17
2018-02-06T11:54:49.238Z,89.73
2018-02-06T11:55:49.295Z,89.26
2018-02-06T11:56:49.344Z,89.17
2018-02-06T11:57:49.398Z,89.83
2018-02-06T11:58:50.150Z,89.92
2018-02-06T11:59:49.503Z,90.39
2018-02-06T12:00:49.557Z,90.20
2018-02-06T12:01:49.610Z,89.54
2018-02-06T12:02:49.665Z,90.11
2018-02-06T12:03:49.716Z,90.20
2018-02-06T12:04:49.770Z,90.01
2018-02-06T12:05:49.825Z,90.96
2018-02-06T12:06:49.877Z,90.11
2018-02-06T12:07:49.932Z,90.01
2018-02-06T12:08:49.984Z,90.30
2018-02-06T12:09:50.037Z,90.39
2018-02-06T12:10:50.147Z,89.83
2018-02-06T12:11:50.144Z,89.64
2018-02-06T12:12:50.199Z,90.01
2018-02-06T12:13:50.251Z,90.58
2018-02-06T12:14:50.304Z,89.64
2018-02-06T12:15:50.357Z,89.45
2018-02-06T12:16:50.410Z,89.54
2018-02-06T12:18:23.681Z,88.60
2018-02-06T12:18:50.518Z,88.12
2018-02-06T12:19:50.570Z,88.93
2018-02-06T12:20:50.624Z,88.45
2018-02-06T12:21:50.728Z,88.55
2018-02-06T12:22:51.259Z,87.98
2018-02-06T12:23:50.784Z,87.23
2018-02-06T12:24:50.837Z,87.04
2018-02-06T12:25:50.891Z,86.66
2018-02-06T12:26:51.096Z,86.18
2018-02-06T12:27:50.998Z,85.80
2018-02-06T12:28:51.052Z,85.33
2018-02-06T12:29:51.106Z,84.58
2018-02-06T12:30:51.161Z,84.39
2018-02-06T12:33:34.822Z,83.91
2018-02-06T12:34:34.876Z,83.72
2018-02-06T12:35:34.930Z,83.63
2018-02-06T12:36:34.985Z,84.67
2018-02-06T12:37:35.244Z,84.48
2018-02-06T12:38:35.091Z,84.48
2018-02-06T12:39:35.146Z,84.20
2018-02-06T12:40:35.199Z,84.29
2018-02-06T12:41:35.252Z,83.82
2018-02-06T12:42:35.306Z,84.58
2018-02-06T12:43:35.363Z,83.91
2018-02-06T12:44:35.414Z,84.01
2018-02-06T12:45:35.468Z,84.01
2018-02-06T12:46:35.522Z,83.91
2018-02-06T12:47:35.622Z,83.82
2018-02-06T12:48:36.204Z,84.20
2018-02-06T12:49:35.685Z,83.63
2018-02-06T12:50:35.737Z,83.82
2018-02-06T12:51:35.792Z,84.48
2018-02-06T12:52:35.849Z,84.29
2018-02-06T12:53:35.913Z,84.20
2018-02-06T12:54:35.952Z,84.20
2018-02-06T12:55:36.007Z,83.72
2018-02-06T12:56:36.061Z,84.58
2018-02-06T12:57:36.114Z,84.67
2018-02-06T12:58:36.168Z,84.01
2018-02-06T12:59:36.492Z,83.72
2018-02-06T13:00:37.078Z,84.67
2018-02-06T13:01:36.331Z,84.77
2018-02-06T13:02:36.384Z,84.29
2018-02-06T13:03:36.440Z,84.29
2018-02-06T13:05:09.703Z,84.29
2018-02-06T13:05:36.548Z,84.39
2018-02-06T13:06:36.601Z,84.77
2018-02-06T13:07:37.232Z,84.58
2018-02-06T13:08:36.707Z,84.48
2018-02-06T13:09:36.762Z,84.67
2018-02-06T13:10:36.816Z,84.58
2018-02-06T13:12:36.924Z,83.72
2018-02-06T13:13:36.976Z,84.39
2018-02-06T13:14:37.030Z,84.58
2018-02-06T13:15:37.619Z,85.33
2018-02-06T13:16:37.177Z,85.42
2018-02-06T13:17:37.341Z,85.42
2018-02-06T13:18:37.244Z,85.24
2018-02-06T13:19:37.298Z,84.86
2018-02-06T13:20:37.351Z,84.48
2018-02-06T13:21:37.444Z,84.58
2018-02-06T13:22:37.659Z,84.86
2018-02-06T13:23:37.513Z,84.39
2018-02-06T13:24:37.567Z,84.39
2018-02-06T13:25:37.619Z,85.05
2018-02-06T13:26:37.675Z,85.42
2018-02-06T13:27:37.729Z,85.52
2018-02-06T13:28:37.781Z,85.14
2018-02-06T13:29:37.833Z,86.47
2018-02-06T13:31:11.099Z,85.90
2018-02-06T13:31:37.942Z,85.52
2018-02-06T13:33:11.212Z,85.61
2018-02-06T13:33:38.049Z,85.33
2018-02-06T13:34:38.103Z,85.61
2018-02-06T13:35:38.158Z,85.71
2018-02-06T13:36:38.210Z,85.61
2018-02-06T13:37:38.263Z,85.99
2018-02-06T13:38:38.317Z,85.61
2018-02-06T13:39:38.389Z,85.42
2018-02-06T13:40:38.424Z,85.33
2018-02-06T13:42:11.688Z,84.67
2018-02-06T13:42:38.531Z,84.20
2018-02-06T13:43:38.585Z,84.77
2018-02-06T13:44:38.640Z,84.01
2018-02-06T13:45:38.691Z,84.39
2018-02-06T13:46:38.746Z,84.10
2018-02-06T13:47:38.799Z,84.20
2018-02-06T13:48:38.853Z,84.29
2018-02-06T13:49:38.906Z,84.67
2018-02-06T13:50:38.960Z,84.58
2018-02-06T13:51:39.013Z,84.77
2018-02-06T13:52:39.068Z,83.91
2018-02-06T13:55:55.939Z,83.72
2018-02-06T13:56:22.800Z,84.29
2018-02-06T13:57:22.837Z,84.39
2018-02-06T13:58:23.041Z,84.58
2018-02-06T13:59:22.944Z,84.58
2018-02-06T14:00:22.996Z,84.58
2018-02-06T14:01:23.060Z,85.24
2018-02-06T14:02:23.109Z,85.52
2018-02-06T14:03:23.157Z,85.33
2018-02-06T14:04:23.461Z,84.95
2018-02-06T14:05:23.265Z,84.58
2018-02-06T14:06:23.318Z,84.39
2018-02-06T14:07:23.373Z,84.58
2018-02-06T14:08:23.426Z,84.48
2018-02-06T14:09:23.479Z,84.67
2018-02-06T14:10:23.533Z,84.39
2018-02-06T14:11:23.585Z,83.53
2018-02-06T14:12:23.640Z,84.10
2018-02-06T14:13:23.693Z,83.63
2018-02-06T14:14:23.747Z,83.82
2018-02-06T14:15:23.799Z,84.10
2018-02-06T14:16:23.853Z,84.10
2018-02-06T14:17:23.908Z,83.91
2018-02-06T14:18:23.961Z,83.91
2018-02-06T14:19:24.017Z,83.63
2018-02-06T14:20:24.067Z,84.01
2018-02-06T14:21:24.120Z,83.44
2018-02-06T14:22:24.175Z,84.29
2018-02-06T14:23:24.227Z,83.91
2018-02-06T14:24:24.281Z,84.39
2018-02-06T14:25:24.335Z,84.58
2018-02-06T14:26:24.389Z,84.58
2018-02-06T14:27:24.450Z,84.77
2018-02-06T14:28:24.495Z,84.58
2018-02-06T14:29:24.552Z,84.58
2018-02-06T14:30:24.646Z,84.20
2018-02-06T14:31:24.656Z,84.48
2018-02-06T14:32:24.708Z,84.67
2018-02-06T14:33:24.762Z,85.52
2018-02-06T14:34:24.874Z,85.33
2018-02-06T14:35:24.869Z,84.77
2018-02-06T14:36:24.931Z,84.77
2018-02-06T14:37:24.976Z,84.48
2018-02-06T14:38:25.029Z,84.67
2018-02-06T14:39:25.085Z,85.33
2018-02-06T14:40:25.135Z,85.05
2018-02-06T14:41:25.189Z,85.33
2018-02-06T14:42:25.242Z,85.24
2018-02-06T14:43:25.294Z,84.77
2018-02-06T14:44:25.348Z,84.58
2018-02-06T14:45:25.401Z,84.58
2018-02-06T14:46:25.455Z,84.86
2018-02-06T14:47:25.508Z,84.58
2018-02-06T14:48:25.562Z,84.48
2018-02-06T14:49:25.615Z,84.58
2018-02-06T14:50:25.667Z,84.48
2018-02-06T14:51:25.719Z,84.58
2018-02-06T14:52:25.776Z,84.58
2018-02-06T14:53:25.828Z,84.10
2018-02-06T14:54:25.881Z,84.29
2018-02-06T14:55:25.938Z,84.39
2018-02-06T14:56:25.986Z,84.58
2018-02-06T14:57:26.040Z,84.95
2018-02-06T14:58:26.094Z,85.24
2018-02-06T14:59:26.146Z,84.67
2018-02-06T15:00:26.200Z,84.58
2018-02-06T15:01:26.252Z,84.95
2018-02-06T15:02:26.310Z,84.77
2018-02-06T15:03:26.361Z,84.86
2018-02-06T15:05:26.466Z,84.58
2018-02-06T15:06:26.519Z,84.67
2018-02-06T15:07:26.572Z,84.48
2018-02-06T15:08:26.623Z,84.58
2018-02-06T15:09:26.928Z,85.38
2018-02-06T15:10:26.731Z,85.33
2018-02-06T15:11:26.783Z,85.42
2018-02-06T15:12:26.835Z,85.47
2018-02-06T15:13:26.890Z,85.42
2018-02-06T15:14:26.943Z,85.47
2018-02-06T15:15:26.996Z,86.04
2018-02-06T15:16:27.050Z,85.80
2018-02-06T15:17:27.102Z,85.71
2018-02-06T15:18:27.154Z,85.61
2018-02-06T15:19:27.208Z,85.42